LGIR Airport Information

Runway Information
Runway 09 Length 8800 ft width 148 ft
Elevation 78 ft Threshold 1565 ft Heading 95
Runway 27 Length 8800 ft Width 148 ft
Elevation 82 ft Threshold 0 ft Heading 275
Runway 12 Length 5138 ft width 164 ft
Elevation 57 ft Threshold 499 ft Heading 126
Runway 30 Length 5138 ft Width 164 ft
Elevation 115 ft Threshold 0 ft Heading 306
Runway 18 Length 2559 ft width 131 ft
Elevation 78 ft Threshold 0 ft Heading 180
Runway 36 Length 2559 ft Width 131 ft
Elevation 115 ft Threshold 328 ft Heading 0
Airport Frequencies
Type A/G Name KAZANTZAKI Frequency 563.7 MHZ
Type APP Name IRAKLION A Frequency 123.975 MHZ
Type ATIS Name ATIS Frequency 127.55 MHZ
Type DIR Name IRAKLION D Frequency 118.025 MHZ
Type GND Name KAZANTZAKI Frequency 121.7 MHZ
Type TRSA Name IRAKLION R Frequency 123.975 MHZ
Type TWR Name KAZANTZAKI Frequency 120.85 MHZ
Airport Navaids
Type NDB Name Iraklion Frequency 431 KHZ
Type VOR-DME Name Iraklion Frequency 108800 KHZ
Type TACAN Name Iraklion Frequency 108300 KHZ
Airport Weather Information & NOTAM
ADDS - METARS form results

(1545 UTC 14 October 2019)
Data provider http://aviationweather.gov/metar/data/
 
METAR text: LGIR 141520Z 35005KT 9999 FEW025 23/18 Q1018 NOSIG
Conditions at: LGIR (IRAKLION (CIV/AF, GR) observed 1520 UTC 14 October 2019
Temperature: 23.0°C (73°F)
Dewpoint: 18.0°C (64°F) [RH = 73%]
Pressure (altimeter): 30.06 inches Hg (1018.0 mb)
Winds: from the N (350 degrees) at 6 MPH (5 knots; 2.6 m/s)
Visibility: 6 or more miles (10+ km)
Ceiling: at least 12,000 feet AGL
Clouds: few clouds at 2500 feet AGL
Weather: no significant weather observed at this time

METAR text: LGIR 141450Z 34004KT 9999 FEW025 23/18 Q1018 NOSIG
Conditions at: LGIR (IRAKLION (CIV/AF, GR) observed 1450 UTC 14 October 2019
Temperature: 23.0°C (73°F)
Dewpoint: 18.0°C (64°F) [RH = 73%]
Pressure (altimeter): 30.06 inches Hg (1018.0 mb)
Winds: from the NNW (340 degrees) at 5 MPH (4 knots; 2.1 m/s)
Visibility: 6 or more miles (10+ km)
Ceiling: at least 12,000 feet AGL
Clouds: few clouds at 2500 feet AGL
Weather: no significant weather observed at this time

Forecast for: LGIR (IRAKLION (CIV/AF, GR)
Text: TAF LGIR 141100Z 1412/1512 36010KT 9999 FEW025
Forecast period: 1200 UTC 14 October 2019 to 1200 UTC 15 October 2019
Forecast type: FROM: standard forecast or significant change
Winds: from the N (360 degrees) at 12 MPH (10 knots; 5.1 m/s)
Visibility: 6 or more miles 10+ km)
Ceiling: at least 12,000 feet AGL
Clouds: few clouds at 2500 feet AGL
Weather: no significant weather forecast for this period